0CO4 weather

Geo-Seis Helicopters Heliport
Fort Collins, Colorado, United States

Public forecast

Using degrees Fahrenheit for public forecast. Weather courtesy of forecast.io.

Closest aviation weather report (METAR) to Geo-Seis Helicopters Heliport

Closest report is Northern Colorado Regional Airport, 8.4 nm (15.6 km) S. Retrieved 2020/04/10 18:56 UTC (10 minutes ago):

KFNL 101856Z VRB04KT 10SM CLR 22/M02 A2984 RMK AO2 SLP065 T02171022

Closest aviation forecast (TAF) to Geo-Seis Helicopters Heliport

Closest forecast is Cheyenne Regional Jerry Olson Field, 35.6 nm (65.9 km) NNE. Retrieved 2020/04/10 18:22 UTC (44 minutes ago):

TAF KCYS 101720Z 1018/1118 29016G25KT P6SM SKC FM110300 30012KT P6SM SKC